sensor_id;sensor_type;location;lat;lon;timestamp;temperature;humidity
4306;DHT22;2166;49.926;8.608;2023-05-24T00:01:29;10.20;76.60
4306;DHT22;2166;49.926;8.608;2023-05-24T00:03:57;10.20;76.60
4306;DHT22;2166;49.926;8.608;2023-05-24T00:06:51;10.20;76.60
4306;DHT22;2166;49.926;8.608;2023-05-24T00:09:23;10.10;76.70
4306;DHT22;2166;49.926;8.608;2023-05-24T00:11:52;10.10;76.80
4306;DHT22;2166;49.926;8.608;2023-05-24T00:14:23;10.10;76.80
4306;DHT22;2166;49.926;8.608;2023-05-24T00:16:52;10.00;76.80
4306;DHT22;2166;49.926;8.608;2023-05-24T00:19:20;10.00;76.80
4306;DHT22;2166;49.926;8.608;2023-05-24T00:21:49;10.00;76.80
4306;DHT22;2166;49.926;8.608;2023-05-24T00:24:17;10.00;76.80
4306;DHT22;2166;49.926;8.608;2023-05-24T00:26:49;10.00;76.90
4306;DHT22;2166;49.926;8.608;2023-05-24T00:29:21;9.90;76.90
4306;DHT22;2166;49.926;8.608;2023-05-24T00:31:52;9.90;76.90
4306;DHT22;2166;49.926;8.608;2023-05-24T00:34:20;9.80;77.20
4306;DHT22;2166;49.926;8.608;2023-05-24T00:36:51;9.70;77.20
4306;DHT22;2166;49.926;8.608;2023-05-24T00:39:20;9.70;77.30
4306;DHT22;2166;49.926;8.608;2023-05-24T00:41:52;9.70;77.30
4306;DHT22;2166;49.926;8.608;2023-05-24T00:44:30;9.60;77.40
4306;DHT22;2166;49.926;8.608;2023-05-24T00:47:02;9.60;77.40
4306;DHT22;2166;49.926;8.608;2023-05-24T00:49:33;9.60;77.30
4306;DHT22;2166;49.926;8.608;2023-05-24T00:52:03;9.60;77.40
4306;DHT22;2166;49.926;8.608;2023-05-24T00:54:34;9.50;77.40
4306;DHT22;2166;49.926;8.608;2023-05-24T00:57:12;9.50;77.40
4306;DHT22;2166;49.926;8.608;2023-05-24T00:59:42;9.50;77.40
4306;DHT22;2166;49.926;8.608;2023-05-24T01:02:10;9.50;77.40
4306;DHT22;2166;49.926;8.608;2023-05-24T01:04:39;9.50;77.40
4306;DHT22;2166;49.926;8.608;2023-05-24T01:07:22;9.40;77.40
4306;DHT22;2166;49.926;8.608;2023-05-24T01:10:02;9.40;77.50
4306;DHT22;2166;49.926;8.608;2023-05-24T01:12:49;9.30;77.50
4306;DHT22;2166;49.926;8.608;2023-05-24T01:15:24;9.30;77.70
4306;DHT22;2166;49.926;8.608;2023-05-24T01:17:57;9.30;77.60
4306;DHT22;2166;49.926;8.608;2023-05-24T01:20:29;9.20;77.70
4306;DHT22;2166;49.926;8.608;2023-05-24T01:23:06;9.20;77.60
4306;DHT22;2166;49.926;8.608;2023-05-24T01:26:09;9.20;77.60
4306;DHT22;2166;49.926;8.608;2023-05-24T01:28:59;9.20;77.60
4306;DHT22;2166;49.926;8.608;2023-05-24T01:31:28;9.10;77.50
4306;DHT22;2166;49.926;8.608;2023-05-24T01:33:56;9.10;77.60
4306;DHT22;2166;49.926;8.608;2023-05-24T01:36:24;9.10;77.60
4306;DHT22;2166;49.926;8.608;2023-05-24T01:38:52;9.10;77.60
4306;DHT22;2166;49.926;8.608;2023-05-24T01:41:35;9.10;77.60
4306;DHT22;2166;49.926;8.608;2023-05-24T01:44:22;9.10;77.60
4306;DHT22;2166;49.926;8.608;2023-05-24T01:47:01;9.00;77.60
4306;DHT22;2166;49.926;8.608;2023-05-24T01:49:39;9.00;77.50
4306;DHT22;2166;49.926;8.608;2023-05-24T01:52:14;9.00;77.50
4306;DHT22;2166;49.926;8.608;2023-05-24T01:54:46;9.00;77.60
4306;DHT22;2166;49.926;8.608;2023-05-24T01:57:19;8.90;77.60
4306;DHT22;2166;49.926;8.608;2023-05-24T01:59:51;8.90;77.60
4306;DHT22;2166;49.926;8.608;2023-05-24T02:02:23;8.90;77.70
4306;DHT22;2166;49.926;8.608;2023-05-24T02:04:52;8.90;77.60
4306;DHT22;2166;49.926;8.608;2023-05-24T02:07:21;9.00;77.60
4306;DHT22;2166;49.926;8.608;2023-05-24T02:09:49;9.00;77.60
4306;DHT22;2166;49.926;8.608;2023-05-24T02:12:19;9.10;77.50
4306;DHT22;2166;49.926;8.608;2023-05-24T02:14:47;9.10;77.50
4306;DHT22;2166;49.926;8.608;2023-05-24T02:17:18;9.20;77.50
4306;DHT22;2166;49.926;8.608;2023-05-24T02:19:48;9.30;77.50
4306;DHT22;2166;49.926;8.608;2023-05-24T02:22:17;9.30;77.30
4306;DHT22;2166;49.926;8.608;2023-05-24T02:24:47;9.40;77.30
4306;DHT22;2166;49.926;8.608;2023-05-24T02:27:17;9.40;77.10
4306;DHT22;2166;49.926;8.608;2023-05-24T02:29:46;9.50;77.00
4306;DHT22;2166;49.926;8.608;2023-05-24T02:32:19;9.60;76.80
4306;DHT22;2166;49.926;8.608;2023-05-24T02:34:51;9.70;76.70
4306;DHT22;2166;49.926;8.608;2023-05-24T02:37:20;9.80;76.50
4306;DHT22;2166;49.926;8.608;2023-05-24T02:39:50;9.80;76.50
4306;DHT22;2166;49.926;8.608;2023-05-24T02:42:20;9.90;76.40
4306;DHT22;2166;49.926;8.608;2023-05-24T02:44:48;9.90;76.30
4306;DHT22;2166;49.926;8.608;2023-05-24T02:47:21;10.00;76.40
4306;DHT22;2166;49.926;8.608;2023-05-24T02:49:54;10.00;76.20
4306;DHT22;2166;49.926;8.608;2023-05-24T02:52:24;10.00;76.00
4306;DHT22;2166;49.926;8.608;2023-05-24T02:54:52;10.00;76.00
4306;DHT22;2166;49.926;8.608;2023-05-24T02:57:21;10.00;75.90
4306;DHT22;2166;49.926;8.608;2023-05-24T02:59:50;10.00;76.00
4306;DHT22;2166;49.926;8.608;2023-05-24T03:02:21;10.00;76.00
4306;DHT22;2166;49.926;8.608;2023-05-24T03:04:51;10.00;76.00
4306;DHT22;2166;49.926;8.608;2023-05-24T03:07:20;9.90;76.00
4306;DHT22;2166;49.926;8.608;2023-05-24T03:09:48;9.90;76.10
4306;DHT22;2166;49.926;8.608;2023-05-24T03:12:17;9.80;76.00
4306;DHT22;2166;49.926;8.608;2023-05-24T03:14:47;9.80;76.00
4306;DHT22;2166;49.926;8.608;2023-05-24T03:17:15;9.80;75.90
4306;DHT22;2166;49.926;8.608;2023-05-24T03:19:46;9.80;76.00
4306;DHT22;2166;49.926;8.608;2023-05-24T03:22:14;9.70;76.10
4306;DHT22;2166;49.926;8.608;2023-05-24T03:24:42;9.60;76.00
4306;DHT22;2166;49.926;8.608;2023-05-24T03:27:11;9.60;76.00
4306;DHT22;2166;49.926;8.608;2023-05-24T03:29:41;9.60;76.00
4306;DHT22;2166;49.926;8.608;2023-05-24T03:32:09;9.70;76.10
4306;DHT22;2166;49.926;8.608;2023-05-24T03:34:37;9.70;76.10
4306;DHT22;2166;49.926;8.608;2023-05-24T03:37:07;9.60;75.80
4306;DHT22;2166;49.926;8.608;2023-05-24T03:39:35;9.70;75.70
4306;DHT22;2166;49.926;8.608;2023-05-24T03:42:30;9.70;75.70
4306;DHT22;2166;49.926;8.608;2023-05-24T03:44:58;9.70;76.00
4306;DHT22;2166;49.926;8.608;2023-05-24T03:47:27;9.70;75.40
4306;DHT22;2166;49.926;8.608;2023-05-24T03:49:55;9.80;75.60
4306;DHT22;2166;49.926;8.608;2023-05-24T03:52:25;9.80;75.60
4306;DHT22;2166;49.926;8.608;2023-05-24T03:54:54;9.80;75.40
4306;DHT22;2166;49.926;8.608;2023-05-24T03:57:22;9.80;75.40
4306;DHT22;2166;49.926;8.608;2023-05-24T03:59:51;9.80;75.40
4306;DHT22;2166;49.926;8.608;2023-05-24T04:02:21;9.80;75.40
4306;DHT22;2166;49.926;8.608;2023-05-24T04:04:51;9.80;75.40
4306;DHT22;2166;49.926;8.608;2023-05-24T04:07:20;9.80;75.30
4306;DHT22;2166;49.926;8.608;2023-05-24T04:09:54;9.70;75.40
4306;DHT22;2166;49.926;8.608;2023-05-24T04:12:23;9.70;75.40
4306;DHT22;2166;49.926;8.608;2023-05-24T04:14:51;9.70;75.40
4306;DHT22;2166;49.926;8.608;2023-05-24T04:17:20;9.60;75.40
4306;DHT22;2166;49.926;8.608;2023-05-24T04:19:51;9.60;75.40
4306;DHT22;2166;49.926;8.608;2023-05-24T04:22:21;9.70;75.40
4306;DHT22;2166;49.926;8.608;2023-05-24T04:24:56;9.90;75.30
4306;DHT22;2166;49.926;8.608;2023-05-24T04:27:26;9.90;75.30
4306;DHT22;2166;49.926;8.608;2023-05-24T04:29:56;9.80;75.30
4306;DHT22;2166;49.926;8.608;2023-05-24T04:32:25;9.90;75.40
4306;DHT22;2166;49.926;8.608;2023-05-24T04:34:57;9.80;75.20
4306;DHT22;2166;49.926;8.608;2023-05-24T04:37:26;9.80;75.30
4306;DHT22;2166;49.926;8.608;2023-05-24T04:39:57;9.80;75.40
4306;DHT22;2166;49.926;8.608;2023-05-24T04:42:25;9.80;75.30
4306;DHT22;2166;49.926;8.608;2023-05-24T04:44:57;9.70;75.30
4306;DHT22;2166;49.926;8.608;2023-05-24T04:47:26;9.70;75.30
4306;DHT22;2166;49.926;8.608;2023-05-24T04:49:55;10.00;75.70
4306;DHT22;2166;49.926;8.608;2023-05-24T04:52:23;10.60;75.00
4306;DHT22;2166;49.926;8.608;2023-05-24T04:54:51;11.30;74.30
4306;DHT22;2166;49.926;8.608;2023-05-24T04:57:22;11.80;73.50
4306;DHT22;2166;49.926;8.608;2023-05-24T04:59:51;12.10;72.60
4306;DHT22;2166;49.926;8.608;2023-05-24T05:02:19;12.30;72.40
4306;DHT22;2166;49.926;8.608;2023-05-24T05:04:50;12.60;71.80
4306;DHT22;2166;49.926;8.608;2023-05-24T05:07:18;13.00;71.70
4306;DHT22;2166;49.926;8.608;2023-05-24T05:09:48;13.30;71.20
4306;DHT22;2166;49.926;8.608;2023-05-24T05:12:18;13.30;70.80
4306;DHT22;2166;49.926;8.608;2023-05-24T05:14:49;13.60;70.50
4306;DHT22;2166;49.926;8.608;2023-05-24T05:17:18;13.70;69.60
4306;DHT22;2166;49.926;8.608;2023-05-24T05:19:48;13.90;69.20
4306;DHT22;2166;49.926;8.608;2023-05-24T05:22:17;14.10;68.70
4306;DHT22;2166;49.926;8.608;2023-05-24T05:24:45;14.30;68.30
4306;DHT22;2166;49.926;8.608;2023-05-24T05:27:13;14.70;67.00
4306;DHT22;2166;49.926;8.608;2023-05-24T05:29:41;14.90;65.90
4306;DHT22;2166;49.926;8.608;2023-05-24T05:32:10;14.90;65.70
4306;DHT22;2166;49.926;8.608;2023-05-24T05:34:39;15.10;64.90
4306;DHT22;2166;49.926;8.608;2023-05-24T05:37:07;15.20;64.20
4306;DHT22;2166;49.926;8.608;2023-05-24T05:39:35;15.20;64.10
4306;DHT22;2166;49.926;8.608;2023-05-24T05:42:04;15.40;63.60
4306;DHT22;2166;49.926;8.608;2023-05-24T05:44:34;15.90;62.90
4306;DHT22;2166;49.926;8.608;2023-05-24T05:47:02;16.20;61.10
4306;DHT22;2166;49.926;8.608;2023-05-24T05:49:35;16.70;61.20
4306;DHT22;2166;49.926;8.608;2023-05-24T05:52:03;17.10;60.20
4306;DHT22;2166;49.926;8.608;2023-05-24T05:54:33;16.90;58.90
4306;DHT22;2166;49.926;8.608;2023-05-24T05:57:01;16.80;59.20
4306;DHT22;2166;49.926;8.608;2023-05-24T05:59:30;16.80;59.60
4306;DHT22;2166;49.926;8.608;2023-05-24T06:02:02;17.00;58.70
4306;DHT22;2166;49.926;8.608;2023-05-24T06:04:31;16.90;58.60
4306;DHT22;2166;49.926;8.608;2023-05-24T06:07:02;16.60;59.30
4306;DHT22;2166;49.926;8.608;2023-05-24T06:09:38;16.80;59.00
4306;DHT22;2166;49.926;8.608;2023-05-24T06:12:06;16.70;59.30
4306;DHT22;2166;49.926;8.608;2023-05-24T06:14:35;16.90;58.40
4306;DHT22;2166;49.926;8.608;2023-05-24T06:17:08;17.10;57.60
4306;DHT22;2166;49.926;8.608;2023-05-24T06:19:37;17.50;57.00
4306;DHT22;2166;49.926;8.608;2023-05-24T06:22:10;17.90;55.60
4306;DHT22;2166;49.926;8.608;2023-05-24T06:24:39;18.30;54.80
4306;DHT22;2166;49.926;8.608;2023-05-24T06:27:10;18.60;54.00
4306;DHT22;2166;49.926;8.608;2023-05-24T06:29:38;19.00;52.80
4306;DHT22;2166;49.926;8.608;2023-05-24T06:32:07;19.20;52.60
4306;DHT22;2166;49.926;8.608;2023-05-24T06:34:38;19.70;51.80
4306;DHT22;2166;49.926;8.608;2023-05-24T06:37:07;20.10;50.70
4306;DHT22;2166;49.926;8.608;2023-05-24T06:39:37;20.40;49.90
4306;DHT22;2166;49.926;8.608;2023-05-24T06:42:07;20.60;49.80
4306;DHT22;2166;49.926;8.608;2023-05-24T06:44:35;21.30;49.40
4306;DHT22;2166;49.926;8.608;2023-05-24T06:47:03;21.60;48.00
4306;DHT22;2166;49.926;8.608;2023-05-24T06:49:33;21.00;49.10
4306;DHT22;2166;49.926;8.608;2023-05-24T06:52:02;20.90;49.20
4306;DHT22;2166;49.926;8.608;2023-05-24T06:54:30;20.60;50.00
4306;DHT22;2166;49.926;8.608;2023-05-24T06:57:00;20.60;49.60
4306;DHT22;2166;49.926;8.608;2023-05-24T06:59:29;20.00;49.90
4306;DHT22;2166;49.926;8.608;2023-05-24T07:01:57;20.10;49.70
4306;DHT22;2166;49.926;8.608;2023-05-24T07:04:30;20.00;49.40
4306;DHT22;2166;49.926;8.608;2023-05-24T07:06:59;20.30;49.00
4306;DHT22;2166;49.926;8.608;2023-05-24T07:09:29;20.60;48.50
4306;DHT22;2166;49.926;8.608;2023-05-24T07:11:57;20.70;48.40
4306;DHT22;2166;49.926;8.608;2023-05-24T07:14:31;20.80;48.10
4306;DHT22;2166;49.926;8.608;2023-05-24T07:16:59;21.00;49.20
4306;DHT22;2166;49.926;8.608;2023-05-24T07:19:28;22.00;47.00
4306;DHT22;2166;49.926;8.608;2023-05-24T07:21:56;23.30;45.50
4306;DHT22;2166;49.926;8.608;2023-05-24T07:24:24;24.00;44.00
4306;DHT22;2166;49.926;8.608;2023-05-24T07:26:52;24.60;42.50
4306;DHT22;2166;49.926;8.608;2023-05-24T07:29:22;24.40;42.50
4306;DHT22;2166;49.926;8.608;2023-05-24T07:31:53;24.30;42.60
4306;DHT22;2166;49.926;8.608;2023-05-24T07:34:22;24.30;42.70
4306;DHT22;2166;49.926;8.608;2023-05-24T07:36:53;23.50;43.50
4306;DHT22;2166;49.926;8.608;2023-05-24T07:39:21;23.10;44.00
4306;DHT22;2166;49.926;8.608;2023-05-24T07:41:54;23.00;44.00
4306;DHT22;2166;49.926;8.608;2023-05-24T07:44:23;23.70;42.90
4306;DHT22;2166;49.926;8.608;2023-05-24T07:46:52;24.50;42.20
4306;DHT22;2166;49.926;8.608;2023-05-24T07:49:22;24.70;42.50
4306;DHT22;2166;49.926;8.608;2023-05-24T07:51:50;24.70;42.20
4306;DHT22;2166;49.926;8.608;2023-05-24T07:54:19;25.50;41.70
4306;DHT22;2166;49.926;8.608;2023-05-24T07:56:48;24.90;41.60
4306;DHT22;2166;49.926;8.608;2023-05-24T07:59:16;24.70;42.60
4306;DHT22;2166;49.926;8.608;2023-05-24T08:01:55;24.70;41.90
4306;DHT22;2166;49.926;8.608;2023-05-24T08:04:27;24.80;42.30
4306;DHT22;2166;49.926;8.608;2023-05-24T08:07:02;24.40;41.90
4306;DHT22;2166;49.926;8.608;2023-05-24T08:09:34;24.70;42.50
4306;DHT22;2166;49.926;8.608;2023-05-24T08:12:05;25.30;41.90
4306;DHT22;2166;49.926;8.608;2023-05-24T08:14:38;25.30;40.60
4306;DHT22;2166;49.926;8.608;2023-05-24T08:17:09;25.40;41.40
4306;DHT22;2166;49.926;8.608;2023-05-24T08:19:37;25.00;40.60
4306;DHT22;2166;49.926;8.608;2023-05-24T08:22:06;25.00;42.00
4306;DHT22;2166;49.926;8.608;2023-05-24T08:24:35;24.80;41.50
4306;DHT22;2166;49.926;8.608;2023-05-24T08:27:03;24.60;42.00
4306;DHT22;2166;49.926;8.608;2023-05-24T08:29:33;24.70;40.70
4306;DHT22;2166;49.926;8.608;2023-05-24T08:32:02;24.10;40.30
4306;DHT22;2166;49.926;8.608;2023-05-24T08:34:36;23.40;42.10
4306;DHT22;2166;49.926;8.608;2023-05-24T08:37:04;22.90;41.90
4306;DHT22;2166;49.926;8.608;2023-05-24T08:39:33;22.30;43.50
4306;DHT22;2166;49.926;8.608;2023-05-24T08:42:01;22.10;44.20
4306;DHT22;2166;49.926;8.608;2023-05-24T08:44:36;21.70;45.30
4306;DHT22;2166;49.926;8.608;2023-05-24T08:47:08;21.50;45.30
4306;DHT22;2166;49.926;8.608;2023-05-24T08:49:39;21.30;45.10
4306;DHT22;2166;49.926;8.608;2023-05-24T08:52:11;20.80;46.80
4306;DHT22;2166;49.926;8.608;2023-05-24T08:54:40;20.50;47.00
4306;DHT22;2166;49.926;8.608;2023-05-24T08:57:09;21.10;47.20
4306;DHT22;2166;49.926;8.608;2023-05-24T08:59:39;21.90;46.00
4306;DHT22;2166;49.926;8.608;2023-05-24T09:02:14;23.00;44.30
4306;DHT22;2166;49.926;8.608;2023-05-24T09:04:48;23.80;43.10
4306;DHT22;2166;49.926;8.608;2023-05-24T09:07:18;22.80;44.50
4306;DHT22;2166;49.926;8.608;2023-05-24T09:09:54;22.20;44.00
4306;DHT22;2166;49.926;8.608;2023-05-24T09:12:24;21.60;44.90
4306;DHT22;2166;49.926;8.608;2023-05-24T09:15:05;20.90;46.40
4306;DHT22;2166;49.926;8.608;2023-05-24T09:17:34;20.50;47.00
4306;DHT22;2166;49.926;8.608;2023-05-24T09:20:07;20.50;46.40
4306;DHT22;2166;49.926;8.608;2023-05-24T09:22:37;21.10;45.70
4306;DHT22;2166;49.926;8.608;2023-05-24T09:25:11;21.90;44.60
4306;DHT22;2166;49.926;8.608;2023-05-24T09:27:39;23.60;42.00
4306;DHT22;2166;49.926;8.608;2023-05-24T09:30:09;25.30;39.10
4306;DHT22;2166;49.926;8.608;2023-05-24T09:32:39;26.50;37.90
4306;DHT22;2166;49.926;8.608;2023-05-24T09:35:12;27.10;36.30
4306;DHT22;2166;49.926;8.608;2023-05-24T09:37:40;26.80;36.70
4306;DHT22;2166;49.926;8.608;2023-05-24T09:40:17;27.40;35.90
4306;DHT22;2166;49.926;8.608;2023-05-24T09:42:46;28.20;35.80
4306;DHT22;2166;49.926;8.608;2023-05-24T09:45:17;29.20;34.90
4306;DHT22;2166;49.926;8.608;2023-05-24T09:47:48;30.30;34.20
4306;DHT22;2166;49.926;8.608;2023-05-24T09:50:17;30.10;34.30
4306;DHT22;2166;49.926;8.608;2023-05-24T09:52:45;29.60;34.40
4306;DHT22;2166;49.926;8.608;2023-05-24T09:55:16;29.40;34.20
4306;DHT22;2166;49.926;8.608;2023-05-24T09:57:49;28.90;34.90
4306;DHT22;2166;49.926;8.608;2023-05-24T10:00:23;29.30;34.90
4306;DHT22;2166;49.926;8.608;2023-05-24T10:02:59;29.90;33.20
4306;DHT22;2166;49.926;8.608;2023-05-24T10:05:30;30.90;33.40
4306;DHT22;2166;49.926;8.608;2023-05-24T10:07:59;31.90;31.60
4306;DHT22;2166;49.926;8.608;2023-05-24T10:10:29;32.50;31.30
4306;DHT22;2166;49.926;8.608;2023-05-24T10:12:59;33.40;30.40
4306;DHT22;2166;49.926;8.608;2023-05-24T10:15:29;34.20;29.90
4306;DHT22;2166;49.926;8.608;2023-05-24T10:17:57;34.10;29.00
4306;DHT22;2166;49.926;8.608;2023-05-24T10:20:27;34.10;29.20
4306;DHT22;2166;49.926;8.608;2023-05-24T10:23:00;34.80;29.30
4306;DHT22;2166;49.926;8.608;2023-05-24T10:25:31;35.20;29.20
4306;DHT22;2166;49.926;8.608;2023-05-24T10:28:03;35.10;29.10
4306;DHT22;2166;49.926;8.608;2023-05-24T10:30:36;35.30;28.20
4306;DHT22;2166;49.926;8.608;2023-05-24T10:33:13;35.40;28.90
4306;DHT22;2166;49.926;8.608;2023-05-24T10:35:43;36.60;28.20
4306;DHT22;2166;49.926;8.608;2023-05-24T10:38:19;36.10;27.60
4306;DHT22;2166;49.926;8.608;2023-05-24T10:40:49;35.20;28.40
4306;DHT22;2166;49.926;8.608;2023-05-24T10:43:22;33.10;30.50
4306;DHT22;2166;49.926;8.608;2023-05-24T10:45:51;31.10;32.10
4306;DHT22;2166;49.926;8.608;2023-05-24T10:48:34;29.90;33.40
4306;DHT22;2166;49.926;8.608;2023-05-24T10:51:32;29.70;34.30
4306;DHT22;2166;49.926;8.608;2023-05-24T10:54:12;30.60;33.50
4306;DHT22;2166;49.926;8.608;2023-05-24T10:56:44;30.90;32.60
4306;DHT22;2166;49.926;8.608;2023-05-24T10:59:29;30.50;32.00
4306;DHT22;2166;49.926;8.608;2023-05-24T11:02:02;30.90;32.10
4306;DHT22;2166;49.926;8.608;2023-05-24T11:04:36;31.40;31.10
4306;DHT22;2166;49.926;8.608;2023-05-24T11:07:06;31.80;32.10
4306;DHT22;2166;49.926;8.608;2023-05-24T11:09:37;32.50;30.90
4306;DHT22;2166;49.926;8.608;2023-05-24T11:12:14;33.10;30.90
4306;DHT22;2166;49.926;8.608;2023-05-24T11:14:46;33.40;30.90
4306;DHT22;2166;49.926;8.608;2023-05-24T11:17:20;33.40;30.10
4306;DHT22;2166;49.926;8.608;2023-05-24T11:19:52;33.10;29.90
4306;DHT22;2166;49.926;8.608;2023-05-24T11:22:25;33.20;30.50
4306;DHT22;2166;49.926;8.608;2023-05-24T11:24:55;33.00;30.70
4306;DHT22;2166;49.926;8.608;2023-05-24T11:27:30;32.00;30.40
4306;DHT22;2166;49.926;8.608;2023-05-24T11:30:02;32.20;30.70
4306;DHT22;2166;49.926;8.608;2023-05-24T11:32:33;32.00;31.70
4306;DHT22;2166;49.926;8.608;2023-05-24T11:35:04;32.20;32.40
4306;DHT22;2166;49.926;8.608;2023-05-24T11:37:35;32.50;31.60
4306;DHT22;2166;49.926;8.608;2023-05-24T11:40:14;31.80;30.70
4306;DHT22;2166;49.926;8.608;2023-05-24T11:42:43;31.30;32.30
4306;DHT22;2166;49.926;8.608;2023-05-24T11:45:13;31.00;31.50
4306;DHT22;2166;49.926;8.608;2023-05-24T11:47:42;31.40;31.50
4306;DHT22;2166;49.926;8.608;2023-05-24T11:50:14;32.30;30.80
4306;DHT22;2166;49.926;8.608;2023-05-24T11:52:42;32.50;31.30
4306;DHT22;2166;49.926;8.608;2023-05-24T11:55:11;32.50;30.40
4306;DHT22;2166;49.926;8.608;2023-05-24T11:57:49;31.80;31.70
4306;DHT22;2166;49.926;8.608;2023-05-24T12:00:23;32.50;32.00
4306;DHT22;2166;49.926;8.608;2023-05-24T12:02:55;32.50;29.40
4306;DHT22;2166;49.926;8.608;2023-05-24T12:05:23;32.30;31.00
4306;DHT22;2166;49.926;8.608;2023-05-24T12:08:01;32.50;31.80
4306;DHT22;2166;49.926;8.608;2023-05-24T12:10:32;33.10;29.60
4306;DHT22;2166;49.926;8.608;2023-05-24T12:13:17;33.10;30.50
4306;DHT22;2166;49.926;8.608;2023-05-24T12:15:54;32.40;31.10
4306;DHT22;2166;49.926;8.608;2023-05-24T12:18:26;32.40;30.50
4306;DHT22;2166;49.926;8.608;2023-05-24T12:20:56;32.30;31.30
4306;DHT22;2166;49.926;8.608;2023-05-24T12:23:29;32.90;30.80
4306;DHT22;2166;49.926;8.608;2023-05-24T12:25:58;34.00;29.80
4306;DHT22;2166;49.926;8.608;2023-05-24T12:28:32;34.00;30.80
4306;DHT22;2166;49.926;8.608;2023-05-24T12:31:04;35.10;28.50
4306;DHT22;2166;49.926;8.608;2023-05-24T12:33:33;35.60;28.10
4306;DHT22;2166;49.926;8.608;2023-05-24T12:36:06;35.00;28.80
4306;DHT22;2166;49.926;8.608;2023-05-24T12:38:34;32.80;30.00
4306;DHT22;2166;49.926;8.608;2023-05-24T12:41:04;31.90;31.10
4306;DHT22;2166;49.926;8.608;2023-05-24T12:43:42;31.10;32.10
4306;DHT22;2166;49.926;8.608;2023-05-24T12:46:11;31.00;32.30
4306;DHT22;2166;49.926;8.608;2023-05-24T12:48:40;31.40;32.70
4306;DHT22;2166;49.926;8.608;2023-05-24T12:51:12;32.50;30.90
4306;DHT22;2166;49.926;8.608;2023-05-24T12:53:49;31.90;30.20
4306;DHT22;2166;49.926;8.608;2023-05-24T12:56:17;31.50;30.40
4306;DHT22;2166;49.926;8.608;2023-05-24T12:58:49;30.90;31.60
4306;DHT22;2166;49.926;8.608;2023-05-24T13:01:21;30.60;32.50
4306;DHT22;2166;49.926;8.608;2023-05-24T13:03:50;30.60;32.10
4306;DHT22;2166;49.926;8.608;2023-05-24T13:06:20;31.40;31.80
4306;DHT22;2166;49.926;8.608;2023-05-24T13:08:48;32.30;30.60
4306;DHT22;2166;49.926;8.608;2023-05-24T13:11:16;33.70;29.20
4306;DHT22;2166;49.926;8.608;2023-05-24T13:13:50;32.80;29.90
4306;DHT22;2166;49.926;8.608;2023-05-24T13:16:19;32.30;31.50
4306;DHT22;2166;49.926;8.608;2023-05-24T13:18:50;32.40;31.10
4306;DHT22;2166;49.926;8.608;2023-05-24T13:21:18;32.60;29.50
4306;DHT22;2166;49.926;8.608;2023-05-24T13:23:47;32.00;30.50
4306;DHT22;2166;49.926;8.608;2023-05-24T13:26:16;32.30;31.70
4306;DHT22;2166;49.926;8.608;2023-05-24T13:28:46;33.40;30.80
4306;DHT22;2166;49.926;8.608;2023-05-24T13:31:37;32.50;30.30
4306;DHT22;2166;49.926;8.608;2023-05-24T13:34:08;31.40;31.30
4306;DHT22;2166;49.926;8.608;2023-05-24T13:36:37;30.60;31.10
4306;DHT22;2166;49.926;8.608;2023-05-24T13:39:06;29.90;32.10
4306;DHT22;2166;49.926;8.608;2023-05-24T13:41:39;28.90;33.30
4306;DHT22;2166;49.926;8.608;2023-05-24T13:44:10;28.20;33.90
4306;DHT22;2166;49.926;8.608;2023-05-24T13:46:42;27.80;34.30
4306;DHT22;2166;49.926;8.608;2023-05-24T13:49:11;26.80;35.40
4306;DHT22;2166;49.926;8.608;2023-05-24T13:51:39;25.90;37.00
4306;DHT22;2166;49.926;8.608;2023-05-24T13:54:12;25.20;37.20
4306;DHT22;2166;49.926;8.608;2023-05-24T13:56:41;25.10;38.20
4306;DHT22;2166;49.926;8.608;2023-05-24T13:59:10;25.20;37.30
4306;DHT22;2166;49.926;8.608;2023-05-24T14:01:42;25.10;37.60
4306;DHT22;2166;49.926;8.608;2023-05-24T14:04:13;24.80;37.70
4306;DHT22;2166;49.926;8.608;2023-05-24T14:06:43;25.00;37.80
4306;DHT22;2166;49.926;8.608;2023-05-24T14:09:15;25.00;38.10
4306;DHT22;2166;49.926;8.608;2023-05-24T14:11:43;24.90;38.00
4306;DHT22;2166;49.926;8.608;2023-05-24T14:14:12;25.00;37.70
4306;DHT22;2166;49.926;8.608;2023-05-24T14:16:46;25.00;37.50
4306;DHT22;2166;49.926;8.608;2023-05-24T14:19:17;24.90;36.90
4306;DHT22;2166;49.926;8.608;2023-05-24T14:21:48;24.70;37.80
4306;DHT22;2166;49.926;8.608;2023-05-24T14:24:17;25.20;38.50
4306;DHT22;2166;49.926;8.608;2023-05-24T14:26:46;25.40;38.50
4306;DHT22;2166;49.926;8.608;2023-05-24T14:29:17;25.90;38.40
4306;DHT22;2166;49.926;8.608;2023-05-24T14:31:48;26.30;36.80
4306;DHT22;2166;49.926;8.608;2023-05-24T14:34:20;26.10;36.90
4306;DHT22;2166;49.926;8.608;2023-05-24T14:36:49;26.20;37.40
4306;DHT22;2166;49.926;8.608;2023-05-24T14:39:18;26.20;36.30
4306;DHT22;2166;49.926;8.608;2023-05-24T14:41:46;26.70;35.20
4306;DHT22;2166;49.926;8.608;2023-05-24T14:44:18;27.10;34.80
4306;DHT22;2166;49.926;8.608;2023-05-24T14:46:48;27.70;33.80
4306;DHT22;2166;49.926;8.608;2023-05-24T14:49:20;28.10;34.70
4306;DHT22;2166;49.926;8.608;2023-05-24T14:51:49;28.90;34.50
4306;DHT22;2166;49.926;8.608;2023-05-24T14:54:19;29.20;33.00
4306;DHT22;2166;49.926;8.608;2023-05-24T14:56:50;29.50;32.80
4306;DHT22;2166;49.926;8.608;2023-05-24T14:59:20;29.60;32.50
4306;DHT22;2166;49.926;8.608;2023-05-24T15:01:50;30.10;31.80
4306;DHT22;2166;49.926;8.608;2023-05-24T15:04:21;30.10;31.50
4306;DHT22;2166;49.926;8.608;2023-05-24T15:06:51;30.00;31.00
4306;DHT22;2166;49.926;8.608;2023-05-24T15:09:23;29.60;31.40
4306;DHT22;2166;49.926;8.608;2023-05-24T15:11:55;29.20;32.50
4306;DHT22;2166;49.926;8.608;2023-05-24T15:14:24;29.40;32.00
4306;DHT22;2166;49.926;8.608;2023-05-24T15:16:56;29.80;32.50
4306;DHT22;2166;49.926;8.608;2023-05-24T15:19:25;30.30;31.60
4306;DHT22;2166;49.926;8.608;2023-05-24T15:21:54;29.80;31.70
4306;DHT22;2166;49.926;8.608;2023-05-24T15:24:25;28.80;32.70
4306;DHT22;2166;49.926;8.608;2023-05-24T15:26:54;27.80;33.10
4306;DHT22;2166;49.926;8.608;2023-05-24T15:29:25;26.70;34.70
4306;DHT22;2166;49.926;8.608;2023-05-24T15:32:03;25.70;36.20
4306;DHT22;2166;49.926;8.608;2023-05-24T15:34:35;24.40;37.90
4306;DHT22;2166;49.926;8.608;2023-05-24T15:37:03;24.10;38.50
4306;DHT22;2166;49.926;8.608;2023-05-24T15:39:33;23.80;39.10
4306;DHT22;2166;49.926;8.608;2023-05-24T15:42:04;23.60;39.60
4306;DHT22;2166;49.926;8.608;2023-05-24T15:44:32;23.50;38.90
4306;DHT22;2166;49.926;8.608;2023-05-24T15:47:10;23.30;38.90
4306;DHT22;2166;49.926;8.608;2023-05-24T15:49:39;23.20;38.70
4306;DHT22;2166;49.926;8.608;2023-05-24T15:52:09;23.40;39.00
4306;DHT22;2166;49.926;8.608;2023-05-24T15:54:43;23.60;39.70
4306;DHT22;2166;49.926;8.608;2023-05-24T15:57:13;23.50;40.20
4306;DHT22;2166;49.926;8.608;2023-05-24T15:59:42;23.40;40.80
4306;DHT22;2166;49.926;8.608;2023-05-24T16:02:21;22.80;39.70
4306;DHT22;2166;49.926;8.608;2023-05-24T16:04:50;22.70;39.80
4306;DHT22;2166;49.926;8.608;2023-05-24T16:07:19;22.50;40.80
4306;DHT22;2166;49.926;8.608;2023-05-24T16:09:49;22.50;41.40
4306;DHT22;2166;49.926;8.608;2023-05-24T16:12:22;22.20;41.80
4306;DHT22;2166;49.926;8.608;2023-05-24T16:15:06;22.10;41.10
4306;DHT22;2166;49.926;8.608;2023-05-24T16:17:38;21.90;41.40
4306;DHT22;2166;49.926;8.608;2023-05-24T16:20:08;21.70;40.30
4306;DHT22;2166;49.926;8.608;2023-05-24T16:22:47;21.50;40.80
4306;DHT22;2166;49.926;8.608;2023-05-24T16:25:17;21.40;41.00
4306;DHT22;2166;49.926;8.608;2023-05-24T16:27:50;21.60;41.80
4306;DHT22;2166;49.926;8.608;2023-05-24T16:30:22;21.60;42.60